createdAt,value
2023-01-26T00:01:35.195Z,25.00
2023-01-26T00:06:51.270Z,20.27
2023-01-26T00:09:38.833Z,18.17
2023-01-26T00:12:08.203Z,17.50
2023-01-26T00:17:38.572Z,16.70
2023-01-26T00:20:08.313Z,15.97
2023-01-26T00:22:37.623Z,16.07
2023-01-26T00:25:07.103Z,15.30
2023-01-26T00:27:36.389Z,15.27
2023-01-26T00:30:07.454Z,15.33
2023-01-26T00:32:37.269Z,16.00
2023-01-26T00:35:06.878Z,16.07
2023-01-26T00:37:38.666Z,16.40
2023-01-26T00:40:08.299Z,16.53
2023-01-26T00:42:56.216Z,16.07
2023-01-26T00:45:28.527Z,16.10
2023-01-26T00:47:57.723Z,16.20
2023-01-26T00:50:26.972Z,15.80
2023-01-26T00:52:56.109Z,17.60
2023-01-26T00:55:32.559Z,18.37
2023-01-26T00:58:02.616Z,19.57
2023-01-26T01:00:34.590Z,19.47
2023-01-26T01:03:03.978Z,19.47
2023-01-26T01:05:34.108Z,19.00
2023-01-26T01:08:03.248Z,19.57
2023-01-26T01:10:51.002Z,19.10
2023-01-26T01:13:20.164Z,19.50
2023-01-26T01:15:51.172Z,21.17
2023-01-26T01:21:26.519Z,18.43
2023-01-26T01:26:42.476Z,18.07
2023-01-26T01:32:02.812Z,18.00
2023-01-26T01:34:32.076Z,19.30
2023-01-26T01:39:48.176Z,18.57
2023-01-26T01:42:18.216Z,18.67
2023-01-26T01:44:49.081Z,19.27
2023-01-26T01:47:22.048Z,18.83
2023-01-26T01:49:55.396Z,18.20
2023-01-26T01:52:26.440Z,18.83
2023-01-26T01:54:58.815Z,19.17
2023-01-26T01:57:30.744Z,19.07
2023-01-26T02:00:10.319Z,19.23
2023-01-26T02:02:45.185Z,20.13
2023-01-26T02:05:19.704Z,20.23
2023-01-26T02:08:09.945Z,18.93
2023-01-26T02:13:26.813Z,18.93
2023-01-26T02:15:56.533Z,22.20
2023-01-26T02:18:46.313Z,20.03
2023-01-26T02:21:18.132Z,19.70
2023-01-26T02:23:52.525Z,19.20
2023-01-26T02:26:24.981Z,21.50
2023-01-26T02:28:54.764Z,19.13
2023-01-26T02:31:25.083Z,19.30
2023-01-26T02:33:55.321Z,21.00
2023-01-26T02:36:25.592Z,18.47
2023-01-26T02:39:01.079Z,18.40
2023-01-26T02:41:49.092Z,17.83
2023-01-26T02:44:18.485Z,17.07
2023-01-26T02:46:47.728Z,15.70
2023-01-26T02:49:36.088Z,17.10
2023-01-26T02:52:26.074Z,17.27
2023-01-26T02:55:25.407Z,15.47
2023-01-26T02:57:57.598Z,18.83
2023-01-26T03:00:27.538Z,16.67
2023-01-26T03:02:59.096Z,16.37
2023-01-26T03:05:28.629Z,16.33
2023-01-26T03:07:58.281Z,17.67
2023-01-26T03:10:34.222Z,18.73
2023-01-26T03:13:05.024Z,16.50
2023-01-26T03:15:48.270Z,15.53
2023-01-26T03:18:36.638Z,17.53
2023-01-26T03:24:31.310Z,15.20
2023-01-26T03:27:19.935Z,16.13
2023-01-26T03:30:10.176Z,16.43
2023-01-26T03:32:39.488Z,17.33
2023-01-26T03:35:32.816Z,15.60
2023-01-26T03:38:20.452Z,16.47
2023-01-26T03:41:10.330Z,14.83
2023-01-26T03:43:57.382Z,17.90
2023-01-26T03:46:45.514Z,16.10
2023-01-26T03:49:32.504Z,15.90
2023-01-26T03:52:19.539Z,14.83
2023-01-26T03:55:25.166Z,15.47
2023-01-26T03:57:54.505Z,14.50
2023-01-26T04:00:42.453Z,15.80
2023-01-26T04:03:30.429Z,15.93
2023-01-26T04:06:18.043Z,13.97
2023-01-26T04:09:09.097Z,14.93
2023-01-26T04:11:38.406Z,15.40
2023-01-26T04:14:25.153Z,17.20
2023-01-26T04:17:12.305Z,16.90
2023-01-26T04:20:00.405Z,19.40
2023-01-26T04:22:29.893Z,18.00
2023-01-26T04:25:20.009Z,17.77
2023-01-26T04:27:49.505Z,16.07
2023-01-26T04:30:19.867Z,16.70
2023-01-26T04:32:49.135Z,15.10
2023-01-26T04:35:20.285Z,14.67
2023-01-26T04:38:08.992Z,15.77
2023-01-26T04:40:39.174Z,14.83
2023-01-26T04:43:08.485Z,14.80
2023-01-26T04:45:38.681Z,14.33
2023-01-26T04:50:59.736Z,13.60
2023-01-26T04:53:29.243Z,15.63
2023-01-26T04:56:16.715Z,15.63
2023-01-26T04:58:46.585Z,12.73
2023-01-26T05:01:16.161Z,12.37
2023-01-26T05:03:45.656Z,14.47
2023-01-26T05:06:33.696Z,13.10
2023-01-26T05:09:04.371Z,13.47
2023-01-26T05:11:35.752Z,15.60
2023-01-26T05:14:17.462Z,14.40
2023-01-26T05:17:09.679Z,12.67
2023-01-26T05:19:50.744Z,12.47
2023-01-26T05:22:32.458Z,16.00
2023-01-26T05:25:35.439Z,13.70
2023-01-26T05:28:09.291Z,14.13
2023-01-26T05:30:38.430Z,13.17
2023-01-26T05:33:26.308Z,13.87
2023-01-26T05:36:14.063Z,15.30
2023-01-26T05:38:44.382Z,13.93
2023-01-26T05:41:15.545Z,13.23
2023-01-26T05:44:13.745Z,12.33
2023-01-26T05:46:50.953Z,12.47
2023-01-26T05:49:20.446Z,13.73
2023-01-26T05:51:49.956Z,12.67
2023-01-26T05:54:19.275Z,13.13
2023-01-26T05:56:51.161Z,13.73
2023-01-26T05:59:20.416Z,14.93
2023-01-26T06:01:49.746Z,14.13
2023-01-26T06:04:19.720Z,15.97
2023-01-26T06:07:00.133Z,16.23
2023-01-26T06:09:34.715Z,13.33
2023-01-26T06:12:08.640Z,13.40
2023-01-26T06:14:57.261Z,12.33
2023-01-26T06:17:33.937Z,13.70
2023-01-26T06:23:02.456Z,19.47
2023-01-26T06:28:41.555Z,14.50
2023-01-26T06:31:12.214Z,14.63
2023-01-26T06:33:59.845Z,14.60
2023-01-26T06:36:29.835Z,13.07
2023-01-26T06:39:00.967Z,16.33
2023-01-26T06:41:30.635Z,15.10
2023-01-26T06:44:01.379Z,16.23
2023-01-26T06:46:31.604Z,13.30
2023-01-26T06:49:19.467Z,14.93
2023-01-26T06:51:50.645Z,14.43
2023-01-26T06:54:38.325Z,12.53
2023-01-26T06:57:23.447Z,13.97
2023-01-26T07:00:22.294Z,14.67
2023-01-26T07:03:06.990Z,16.10
2023-01-26T07:05:36.195Z,19.33
2023-01-26T07:08:08.764Z,21.43
2023-01-26T07:10:37.912Z,19.17
2023-01-26T07:13:07.311Z,14.77
2023-01-26T07:15:37.814Z,16.87
2023-01-26T07:18:06.966Z,15.53
2023-01-26T07:20:36.142Z,18.07
2023-01-26T07:23:05.275Z,18.57
2023-01-26T07:28:20.989Z,19.40
2023-01-26T07:30:51.644Z,18.23
2023-01-26T07:33:21.050Z,20.63
2023-01-26T07:36:08.661Z,16.70
2023-01-26T07:38:37.784Z,19.37
2023-01-26T07:41:07.855Z,15.20
2023-01-26T07:43:37.222Z,15.97
2023-01-26T07:46:12.490Z,13.40
2023-01-26T07:48:41.994Z,14.97
2023-01-26T07:51:13.412Z,16.20
2023-01-26T07:53:43.782Z,18.10
2023-01-26T07:56:31.363Z,22.90
2023-01-26T07:59:18.981Z,23.27
2023-01-26T08:01:50.941Z,21.30
2023-01-26T08:04:20.531Z,15.40
2023-01-26T08:06:49.962Z,14.23
2023-01-26T08:09:19.315Z,13.40
2023-01-26T08:11:48.496Z,15.00
2023-01-26T08:14:17.847Z,17.67
2023-01-26T08:17:05.614Z,14.47
2023-01-26T08:19:36.275Z,12.73
2023-01-26T08:22:05.479Z,15.90
2023-01-26T08:24:34.706Z,12.73
2023-01-26T08:27:03.834Z,18.87
2023-01-26T08:29:32.972Z,14.87
2023-01-26T08:32:20.469Z,12.33
2023-01-26T08:34:51.087Z,13.60
2023-01-26T08:37:39.189Z,13.23
2023-01-26T08:40:09.516Z,13.20
2023-01-26T08:42:38.775Z,14.73
2023-01-26T08:45:08.509Z,12.10
2023-01-26T08:47:56.075Z,15.47
2023-01-26T08:50:27.183Z,15.63
2023-01-26T08:52:58.696Z,13.97
2023-01-26T08:55:28.783Z,13.53
2023-01-26T08:57:57.880Z,15.43
2023-01-26T09:00:27.346Z,15.20
2023-01-26T09:03:01.435Z,13.43
2023-01-26T09:05:50.536Z,12.53
2023-01-26T09:08:19.723Z,15.37
2023-01-26T09:10:48.867Z,14.83
2023-01-26T09:13:18.087Z,14.63
2023-01-26T09:15:47.275Z,14.00
2023-01-26T09:18:34.704Z,12.10
2023-01-26T09:21:09.051Z,14.37
2023-01-26T09:23:39.045Z,13.10
2023-01-26T09:26:08.117Z,12.47
2023-01-26T09:28:55.855Z,12.00
2023-01-26T09:31:25.230Z,13.80
2023-01-26T09:33:54.532Z,13.03
2023-01-26T09:36:25.181Z,14.30
2023-01-26T09:38:54.380Z,12.97
2023-01-26T09:41:45.720Z,11.17
2023-01-26T09:47:23.139Z,11.27
2023-01-26T09:49:57.943Z,11.47
2023-01-26T09:52:34.062Z,12.43
2023-01-26T09:55:04.979Z,32.27
2023-01-26T09:57:36.513Z,21.63
2023-01-26T10:00:09.563Z,11.60
2023-01-26T10:02:44.640Z,12.20
2023-01-26T10:05:17.096Z,11.07
2023-01-26T10:07:48.711Z,11.27
2023-01-26T10:10:18.467Z,10.97
2023-01-26T10:13:05.936Z,11.30
2023-01-26T10:15:39.302Z,12.03
2023-01-26T10:21:14.439Z,15.43
2023-01-26T10:23:48.962Z,14.80
2023-01-26T10:26:19.282Z,12.97
2023-01-26T10:28:49.278Z,9.57
2023-01-26T10:34:12.696Z,10.97
2023-01-26T10:36:42.649Z,11.43
2023-01-26T10:39:15.557Z,10.00
2023-01-26T10:41:58.446Z,9.50
2023-01-26T10:44:31.955Z,9.40
2023-01-26T10:47:05.489Z,13.67
2023-01-26T10:49:34.919Z,10.10
2023-01-26T10:52:11.262Z,9.60
2023-01-26T10:54:44.065Z,10.10
2023-01-26T10:57:32.774Z,9.57
2023-01-26T11:00:25.733Z,10.90
2023-01-26T11:02:55.991Z,10.87
2023-01-26T11:08:34.623Z,9.37
2023-01-26T11:11:07.172Z,13.67
2023-01-26T11:14:14.098Z,9.93
2023-01-26T11:16:44.204Z,10.63
2023-01-26T11:22:07.575Z,13.07
2023-01-26T11:24:42.535Z,13.60
2023-01-26T11:30:20.742Z,10.67
2023-01-26T11:32:54.209Z,10.50
2023-01-26T11:35:46.886Z,10.20
2023-01-26T11:38:24.422Z,10.43
2023-01-26T11:40:58.513Z,9.93
2023-01-26T11:43:34.778Z,9.60
2023-01-26T11:46:08.712Z,9.67
2023-01-26T11:49:04.292Z,11.30
2023-01-26T11:51:40.216Z,10.13
2023-01-26T11:54:14.975Z,10.47
2023-01-26T11:56:51.324Z,10.20
2023-01-26T11:59:24.420Z,10.77
2023-01-26T12:01:56.317Z,10.10
2023-01-26T12:04:25.823Z,10.73
2023-01-26T12:07:13.438Z,11.57
2023-01-26T12:09:45.623Z,10.37
2023-01-26T12:12:18.006Z,11.20
2023-01-26T12:17:47.207Z,13.83
2023-01-26T12:20:28.597Z,10.60
2023-01-26T12:23:01.853Z,10.27
2023-01-26T12:25:35.379Z,10.37
2023-01-26T12:30:59.890Z,9.53
2023-01-26T12:33:29.253Z,10.30
2023-01-26T12:36:18.054Z,10.73
2023-01-26T12:38:53.212Z,10.20
2023-01-26T12:41:28.319Z,10.37
2023-01-26T12:44:07.594Z,11.77
2023-01-26T12:46:39.698Z,9.87
2023-01-26T12:49:13.327Z,13.07
2023-01-26T12:51:44.364Z,9.50
2023-01-26T12:54:16.807Z,9.83
2023-01-26T12:56:48.929Z,11.30
2023-01-26T12:59:38.596Z,9.83
2023-01-26T13:02:21.270Z,12.17
2023-01-26T13:05:09.087Z,10.53
2023-01-26T13:07:38.977Z,11.23
2023-01-26T13:10:25.546Z,10.20
2023-01-26T13:13:29.971Z,10.87
2023-01-26T13:19:33.653Z,10.17
2023-01-26T13:22:05.948Z,10.13
2023-01-26T13:24:58.389Z,9.47
2023-01-26T13:27:35.041Z,9.33
2023-01-26T13:30:04.804Z,10.33
2023-01-26T13:32:54.788Z,10.33
2023-01-26T13:35:25.428Z,10.23
2023-01-26T13:37:59.421Z,10.20
2023-01-26T13:40:31.392Z,10.20
2023-01-26T13:43:07.651Z,9.60
2023-01-26T13:45:46.236Z,9.70
2023-01-26T13:48:18.666Z,10.67
2023-01-26T13:50:48.507Z,10.77
2023-01-26T13:53:36.088Z,10.53
2023-01-26T13:56:06.891Z,10.33
2023-01-26T13:58:54.372Z,10.33
2023-01-26T14:01:23.714Z,10.20
2023-01-26T14:04:04.306Z,9.73
2023-01-26T14:06:33.893Z,10.03
2023-01-26T14:11:57.648Z,10.30
2023-01-26T14:14:27.783Z,11.70
2023-01-26T14:16:56.864Z,9.97
2023-01-26T14:19:26.237Z,11.17
2023-01-26T14:21:56.357Z,9.97
2023-01-26T14:24:34.823Z,10.87
2023-01-26T14:27:04.532Z,11.93
2023-01-26T14:29:40.001Z,12.57
2023-01-26T14:32:16.195Z,10.30
2023-01-26T14:34:53.419Z,12.03
2023-01-26T14:37:24.499Z,13.30
2023-01-26T14:40:18.828Z,12.83
2023-01-26T14:42:48.185Z,11.63
2023-01-26T14:45:17.488Z,10.70
2023-01-26T14:47:46.741Z,11.20
2023-01-26T14:50:18.896Z,14.87
2023-01-26T14:52:49.327Z,10.53
2023-01-26T14:55:23.336Z,11.90
2023-01-26T14:57:54.149Z,12.20
2023-01-26T15:00:26.649Z,13.93
2023-01-26T15:02:56.643Z,13.50
2023-01-26T15:05:33.326Z,18.37
2023-01-26T15:08:03.143Z,11.73
2023-01-26T15:10:38.669Z,12.37
2023-01-26T15:13:08.934Z,11.87
2023-01-26T15:15:38.888Z,12.50
2023-01-26T15:18:19.151Z,12.67
2023-01-26T15:20:52.255Z,12.53
2023-01-26T15:23:23.593Z,11.93
2023-01-26T15:26:15.760Z,17.30
2023-01-26T15:31:54.141Z,11.97
2023-01-26T15:34:31.694Z,10.60
2023-01-26T15:37:01.145Z,12.23
2023-01-26T15:39:30.530Z,12.47
2023-01-26T15:42:17.187Z,12.33
2023-01-26T15:44:46.433Z,12.57
2023-01-26T15:47:15.728Z,12.00
2023-01-26T15:49:44.876Z,13.97
2023-01-26T15:55:22.873Z,14.63
2023-01-26T15:57:53.698Z,15.33
2023-01-26T16:00:23.879Z,15.43
2023-01-26T16:02:53.354Z,18.93
2023-01-26T16:05:25.422Z,21.67
2023-01-26T16:07:54.599Z,20.80
2023-01-26T16:10:23.773Z,21.43
2023-01-26T16:12:54.336Z,21.80
2023-01-26T16:15:30.824Z,23.63
2023-01-26T16:18:00.054Z,23.57
2023-01-26T16:20:29.353Z,22.20
2023-01-26T16:22:58.489Z,22.20
2023-01-26T16:25:28.633Z,30.27
2023-01-26T16:27:59.968Z,23.77
2023-01-26T16:30:29.191Z,20.07
2023-01-26T16:32:58.466Z,22.87
2023-01-26T16:35:29.161Z,29.50
2023-01-26T16:38:17.290Z,28.37
2023-01-26T16:40:49.443Z,22.70
2023-01-26T16:46:08.715Z,18.33
2023-01-26T16:48:38.077Z,21.67
2023-01-26T16:51:14.953Z,20.17
2023-01-26T16:56:30.579Z,20.97
2023-01-26T16:59:01.293Z,19.43
2023-01-26T17:01:33.348Z,27.30
2023-01-26T17:04:02.912Z,23.27
2023-01-26T17:06:32.544Z,19.30
2023-01-26T17:09:01.677Z,21.00
2023-01-26T17:11:31.122Z,20.10
2023-01-26T17:14:03.243Z,16.73
2023-01-26T17:16:33.376Z,16.63
2023-01-26T17:19:21.524Z,16.70
2023-01-26T17:22:09.276Z,16.60
2023-01-26T17:24:38.494Z,17.87
2023-01-26T17:27:07.610Z,17.27
2023-01-26T17:29:39.921Z,17.00
2023-01-26T17:32:27.876Z,18.03
2023-01-26T17:34:57.556Z,18.37
2023-01-26T17:37:29.351Z,16.73
2023-01-26T17:39:59.392Z,15.13
2023-01-26T17:42:29.158Z,18.43
2023-01-26T17:44:59.799Z,16.83
2023-01-26T17:47:28.923Z,19.83
2023-01-26T17:49:58.032Z,17.87
2023-01-26T17:52:27.346Z,23.97
2023-01-26T17:54:57.259Z,18.90
2023-01-26T17:57:26.435Z,22.07
2023-01-26T17:59:55.824Z,21.80
2023-01-26T18:02:26.588Z,26.57
2023-01-26T18:04:55.886Z,21.67
2023-01-26T18:10:13.660Z,15.67
2023-01-26T18:12:42.864Z,15.13
2023-01-26T18:15:30.246Z,16.53
2023-01-26T18:18:00.927Z,16.77
2023-01-26T18:20:30.116Z,18.60
2023-01-26T18:23:00.094Z,16.80
2023-01-26T18:25:29.296Z,17.57
2023-01-26T18:27:58.520Z,19.37
2023-01-26T18:30:27.738Z,18.83
2023-01-26T18:32:57.286Z,24.30
2023-01-26T18:35:27.851Z,21.20
2023-01-26T18:37:57.094Z,19.77
2023-01-26T18:40:26.242Z,18.40
2023-01-26T18:42:56.024Z,17.63
2023-01-26T18:45:25.443Z,18.50
2023-01-26T18:47:54.579Z,20.17
2023-01-26T18:50:23.807Z,16.67
2023-01-26T18:52:55.023Z,16.13
2023-01-26T18:55:24.214Z,17.97
2023-01-26T19:01:24.100Z,16.20
2023-01-26T19:03:56.056Z,15.17
2023-01-26T19:06:25.920Z,15.57
2023-01-26T19:08:58.678Z,19.50
2023-01-26T19:11:28.935Z,18.00
2023-01-26T19:13:58.159Z,17.67
2023-01-26T19:16:27.877Z,17.63
2023-01-26T19:18:57.243Z,18.43
2023-01-26T19:21:27.870Z,16.37
2023-01-26T19:26:49.089Z,15.67
2023-01-26T19:29:18.393Z,16.77
2023-01-26T19:31:47.898Z,22.40
2023-01-26T19:34:17.632Z,21.57
2023-01-26T19:40:10.622Z,15.90
2023-01-26T19:43:17.020Z,18.53
2023-01-26T19:45:53.285Z,16.13
2023-01-26T19:48:23.035Z,16.03
2023-01-26T19:51:03.230Z,16.77
2023-01-26T19:53:32.846Z,16.57
2023-01-26T19:56:02.115Z,16.23
2023-01-26T19:58:51.598Z,17.97
2023-01-26T20:01:22.622Z,21.23
2023-01-26T20:03:52.388Z,21.13
2023-01-26T20:06:22.537Z,21.50
2023-01-26T20:08:52.448Z,18.13
2023-01-26T20:11:25.441Z,17.90
2023-01-26T20:13:57.930Z,18.03
2023-01-26T20:16:29.371Z,18.47
2023-01-26T20:19:17.338Z,17.13
2023-01-26T20:21:46.676Z,17.90
2023-01-26T20:24:16.396Z,19.07
2023-01-26T20:26:45.766Z,17.10
2023-01-26T20:29:15.736Z,22.50
2023-01-26T20:31:46.493Z,20.10
2023-01-26T20:34:16.387Z,22.17
2023-01-26T20:36:45.778Z,23.60
2023-01-26T20:39:16.350Z,25.37
2023-01-26T20:41:45.606Z,25.80
2023-01-26T20:44:14.746Z,27.13
2023-01-26T20:46:44.249Z,29.27
2023-01-26T20:49:16.846Z,23.77
2023-01-26T20:51:46.457Z,17.50
2023-01-26T20:54:16.699Z,16.77
2023-01-26T20:56:47.095Z,17.27
2023-01-26T20:59:18.597Z,19.77
2023-01-26T21:01:47.917Z,21.87
2023-01-26T21:04:18.666Z,24.57
2023-01-26T21:06:47.814Z,23.00
2023-01-26T21:09:17.017Z,20.77
2023-01-26T21:11:46.242Z,19.33
2023-01-26T21:14:15.416Z,22.93
2023-01-26T21:16:45.133Z,23.10
2023-01-26T21:19:14.422Z,22.53
2023-01-26T21:21:45.126Z,24.60
2023-01-26T21:24:14.272Z,24.33
2023-01-26T21:26:43.543Z,22.53
2023-01-26T21:29:15.551Z,22.60
2023-01-26T21:34:32.067Z,22.00
2023-01-26T21:37:02.846Z,19.70
2023-01-26T21:39:32.087Z,20.87
2023-01-26T21:42:01.423Z,19.77
2023-01-26T21:44:31.281Z,19.30
2023-01-26T21:47:20.025Z,19.87
2023-01-26T21:49:50.214Z,20.83
2023-01-26T21:52:38.589Z,20.07
2023-01-26T21:55:08.127Z,21.07
2023-01-26T21:57:54.956Z,21.63
2023-01-26T22:00:24.324Z,20.03
2023-01-26T22:02:54.802Z,25.43
2023-01-26T22:05:23.992Z,20.67
2023-01-26T22:07:54.578Z,22.87
2023-01-26T22:10:23.795Z,21.17
2023-01-26T22:13:11.252Z,21.30
2023-01-26T22:15:40.554Z,24.03
2023-01-26T22:18:09.725Z,22.33
2023-01-26T22:20:39.511Z,35.43
2023-01-26T22:27:29.867Z,23.33
2023-01-26T22:30:00.217Z,19.83
2023-01-26T22:32:29.473Z,22.63
2023-01-26T22:34:58.258Z,21.30
2023-01-26T22:37:27.066Z,21.50
2023-01-26T22:39:55.771Z,20.00
2023-01-26T22:42:24.557Z,20.20
2023-01-26T22:44:53.372Z,19.67
2023-01-26T22:47:23.533Z,19.23
2023-01-26T22:49:52.400Z,19.93
2023-01-26T22:52:21.193Z,22.13
2023-01-26T22:54:49.950Z,32.40
2023-01-26T22:57:18.711Z,36.10
2023-01-26T22:59:47.500Z,27.00
2023-01-26T23:02:16.340Z,28.07
2023-01-26T23:04:46.490Z,27.30
2023-01-26T23:07:15.320Z,24.37
2023-01-26T23:09:44.105Z,37.47
2023-01-26T23:12:12.874Z,44.07
2023-01-26T23:14:41.693Z,45.27
2023-01-26T23:17:10.483Z,37.43
2023-01-26T23:19:39.279Z,30.93
2023-01-26T23:22:09.449Z,24.87
2023-01-26T23:24:38.229Z,21.87
2023-01-26T23:27:07.004Z,24.20
2023-01-26T23:29:35.813Z,22.73
2023-01-26T23:32:04.659Z,23.30
2023-01-26T23:34:33.451Z,24.37
2023-01-26T23:37:02.306Z,27.47
2023-01-26T23:39:32.472Z,27.43
2023-01-26T23:42:01.270Z,29.50
2023-01-26T23:44:30.024Z,30.13
2023-01-26T23:46:58.914Z,31.07
2023-01-26T23:49:27.733Z,26.43
2023-01-26T23:51:56.492Z,25.97
2023-01-26T23:54:25.352Z,22.30
2023-01-26T23:56:55.564Z,19.87
2023-01-26T23:59:24.394Z,19.63
